Bundaberg Aerodrome, Australia
Current Conditions -  °F | °C
As of 7:00 PM on Wednesday 22 Oct 2014 (Local Time) from YBUD Reporting Station
Clear Clear  
Wind Chill: 68°   Ceiling: Unl
Heat Index: 68°   Visibility: 6mi
Dew Point: 54°   Wind: 16mph
Humidity: 60%   Direction: 120°ESE
Pressure: 30.18"   Gusts: NA
Location:  24.9°S, 152.32°E
Report Text: YBUD 220900Z AUTO 12014KT 9999 // NCD 20/12 Q1022
Loading
Personal Weather Stations






























Interactive Weather Map
Tropical Storm Tracking
New forecast layout! Learn more

10-Day Weather Forecast

Advertisements
Track Severe Weather on mobile